8VA8 weather

Mary Immaculate Hospital Heliport
Newport News, Virginia, United States

Public forecast

Using degrees Fahrenheit for public forecast. Weather courtesy of forecast.io.

METAR (pilot weather report)

Closest report is Newport News Williamsburg International Airport, 1.1 nm (2.1 km) SE. Retrieved 2019/07/21 08:54 UTC (1 hour ago):

KPHF 210854Z AUTO 24008KT 10SM CLR 27/22 A2990 RMK AO2 SLP125 T02720222 55002

TAF (pilot weather forecast)

Forecast is more than 12 hours old.

Closest forecast is Newport News Williamsburg International Airport, 1.1 nm (2.1 km) SE. Retrieved 2019/07/20 00:24 UTC (1 day ago):

TAF KPHF 202321Z 2100/2124 24005KT P6SM FEW200 FM211700 25010KT P6SM FEW050